Time;durP1;ratioP1;P1;durP2;ratioP2;P2;SDS_P1;SDS_P2;PMS_P1;PMS_P2;Temp;Humidity;BMP_temperature;BMP_pressure;BME280_temperature;BME280_humidity;BME280_pressure;Samples;Min_cycle;Max_cycle;Signal;HPM_P1;HPM_P2
2023/06/09 00:00:19;;;;;;;4.57;2.60;;;23.10;56.30;;;;;;4976508;28;20034;-68
2023/06/09 00:02:50;;;;;;;3.47;2.50;;;23.10;57.00;;;;;;4977423;28;20484;-67
2023/06/09 00:05:20;;;;;;;3.42;2.45;;;23.00;56.40;;;;;;4949603;28;20027;-68
2023/06/09 00:07:47;;;;;;;4.60;2.60;;;23.00;56.50;;;;;;4960369;28;20500;-67
2023/06/09 00:10:17;;;;;;;4.60;2.60;;;23.00;56.60;;;;;;4981831;28;20022;-68
2023/06/09 00:12:42;;;;;;;4.75;2.70;;;22.90;56.70;;;;;;4964465;28;20034;-67
2023/06/09 00:15:10;;;;;;;4.93;2.40;;;22.90;56.70;;;;;;4976478;28;20078;-68
2023/06/09 00:17:39;;;;;;;4.03;2.70;;;22.90;56.80;;;;;;4978078;28;20570;-67
2023/06/09 00:20:08;;;;;;;4.25;2.63;;;22.80;56.80;;;;;;4955588;28;20042;-68
2023/06/09 00:22:35;;;;;;;3.67;2.13;;;22.70;56.80;;;;;;4960370;28;20142;-68
2023/06/09 00:25:01;;;;;;;4.18;2.53;;;22.70;57.00;;;;;;4975446;28;20113;-68
2023/06/09 00:27:29;;;;;;;3.80;2.47;;;22.70;57.00;;;;;;4978101;28;20323;-68
2023/06/09 00:29:55;;;;;;;4.20;2.60;;;22.60;57.10;;;;;;4966474;28;20427;-68
2023/06/09 00:32:20;;;;;;;5.28;2.85;;;22.50;57.10;;;;;;4978605;28;20042;-68
2023/06/09 00:34:46;;;;;;;4.23;2.80;;;22.50;57.20;;;;;;4944153;28;20026;-68
2023/06/09 00:37:12;;;;;;;3.75;2.53;;;22.50;57.30;;;;;;4982134;28;20109;-68
2023/06/09 00:39:37;;;;;;;4.73;2.63;;;22.40;57.30;;;;;;4958041;28;20033;-67
2023/06/09 00:42:03;;;;;;;3.97;2.33;;;22.30;57.40;;;;;;4980837;28;20418;-68
2023/06/09 00:44:29;;;;;;;3.72;2.40;;;22.30;57.50;;;;;;4964670;28;20023;-68
2023/06/09 00:46:55;;;;;;;4.10;2.47;;;22.30;57.70;;;;;;4964511;28;20034;-68
2023/06/09 00:49:21;;;;;;;4.13;2.58;;;22.20;57.70;;;;;;4981213;28;20026;-68
2023/06/09 00:51:47;;;;;;;4.78;2.65;;;22.10;57.70;;;;;;4947335;28;20232;-68
2023/06/09 00:54:14;;;;;;;3.83;2.60;;;22.10;57.80;;;;;;4960396;28;20042;-68
2023/06/09 00:56:40;;;;;;;5.28;2.47;;;22.10;57.90;;;;;;4976874;28;20550;-67
2023/06/09 00:59:10;;;;;;;4.00;2.38;;;22.00;58.00;;;;;;4949484;28;20131;-68
2023/06/09 01:01:37;;;;;;;5.10;2.63;;;22.00;58.30;;;;;;4978795;28;20513;-67
2023/06/09 01:04:05;;;;;;;5.40;3.10;;;21.90;58.10;;;;;;4983636;28;20251;-68
2023/06/09 01:06:58;;;;;;;4.88;2.50;;;21.80;58.20;;;;;;4952643;28;20076;-68
2023/06/09 01:09:45;;;;;;;4.25;2.63;;;21.80;59.40;;;;;;4965169;28;20034;-68
2023/06/09 01:12:11;;;;;;;3.92;2.30;;;21.70;59.10;;;;;;4982811;28;20120;-68
2023/06/09 01:14:46;;;;;;;4.33;2.30;;;21.70;58.30;;;;;;4972024;28;20035;-67
2023/06/09 01:17:18;;;;;;;4.93;2.58;;;21.60;59.00;;;;;;4976038;28;21170;-68
2023/06/09 01:19:51;;;;;;;5.13;2.55;;;21.60;58.70;;;;;;4976709;28;20460;-67
2023/06/09 01:22:28;;;;;;;5.57;2.42;;;21.50;59.10;;;;;;4955988;28;20017;-67
2023/06/09 01:25:04;;;;;;;4.68;2.38;;;21.50;58.60;;;;;;4961465;28;20030;-67
2023/06/09 01:27:33;;;;;;;4.53;2.60;;;21.40;59.30;;;;;;4982538;28;20105;-67
2023/06/09 01:30:00;;;;;;;3.92;2.50;;;21.40;58.80;;;;;;4982504;28;20340;-68
2023/06/09 01:32:27;;;;;;;3.70;2.40;;;21.40;59.00;;;;;;4970619;28;20165;-68
2023/06/09 01:34:54;;;;;;;4.38;2.53;;;21.30;59.10;;;;;;4972170;28;20042;-67
2023/06/09 01:37:20;;;;;;;3.38;2.55;;;21.30;59.10;;;;;;4953799;28;20561;-68
2023/06/09 01:39:46;;;;;;;4.10;2.33;;;21.30;59.20;;;;;;4942245;28;20641;-67
2023/06/09 01:42:12;;;;;;;4.20;2.53;;;21.30;59.30;;;;;;4981767;28;20393;-68
2023/06/09 01:44:37;;;;;;;3.97;2.30;;;21.20;59.30;;;;;;4974174;28;20058;-67
2023/06/09 01:47:05;;;;;;;4.73;2.40;;;21.20;59.30;;;;;;4961411;28;20335;-68
2023/06/09 01:49:46;;;;;;;4.30;2.30;;;21.20;60.10;;;;;;4946452;28;20104;-67
2023/06/09 01:52:30;;;;;;;5.57;2.53;;;21.10;59.60;;;;;;4951652;28;20038;-68
2023/06/09 01:55:02;;;;;;;4.73;2.33;;;21.10;60.30;;;;;;4957580;28;20168;-68
2023/06/09 01:58:04;;;;;;;4.30;2.47;;;21.10;59.80;;;;;;4976072;28;20057;-68
2023/06/09 02:00:30;;;;;;;3.72;2.10;;;21.10;60.90;;;;;;4943496;28;20072;-68
2023/06/09 02:02:59;;;;;;;6.50;2.60;;;21.00;59.50;;;;;;4946948;28;20054;-68
2023/06/09 02:05:26;;;;;;;4.50;2.20;;;20.90;59.80;;;;;;4977088;28;20072;-67
2023/06/09 02:07:53;;;;;;;3.00;2.03;;;21.00;59.80;;;;;;4939257;28;24785;-68
2023/06/09 02:10:22;;;;;;;6.50;2.60;;;20.90;59.80;;;;;;4981094;28;20041;-68
2023/06/09 02:12:48;;;;;;;3.90;2.30;;;20.90;60.20;;;;;;4957697;28;20311;-68
2023/06/09 02:15:14;;;;;;;4.40;2.33;;;20.90;59.90;;;;;;4962744;28;20019;-68
2023/06/09 02:17:40;;;;;;;5.03;2.40;;;20.80;60.10;;;;;;4962232;28;20053;-67
2023/06/09 02:20:08;;;;;;;5.22;2.38;;;20.80;60.20;;;;;;4972352;28;20057;-68
2023/06/09 02:22:38;;;;;;;4.50;2.40;;;20.80;60.40;;;;;;4959771;28;20457;-67
2023/06/09 02:25:04;;;;;;;4.22;2.40;;;20.70;60.40;;;;;;4968539;28;20201;-68
2023/06/09 02:27:30;;;;;;;5.13;2.60;;;20.70;60.30;;;;;;4957760;28;20378;-67
2023/06/09 02:29:56;;;;;;;4.25;2.10;;;20.70;60.40;;;;;;4979773;28;20543;-68
2023/06/09 02:32:22;;;;;;;4.40;2.40;;;20.70;60.40;;;;;;4976018;28;20027;-67
2023/06/09 02:34:48;;;;;;;4.07;2.30;;;20.60;60.50;;;;;;4949470;28;20021;-68
2023/06/09 02:37:14;;;;;;;5.03;2.63;;;20.60;60.60;;;;;;4965674;28;20033;-68
2023/06/09 02:39:41;;;;;;;4.05;2.30;;;20.50;60.60;;;;;;4948444;28;20587;-67
2023/06/09 02:42:07;;;;;;;5.20;2.38;;;20.50;60.70;;;;;;4962686;28;20649;-68
2023/06/09 02:44:33;;;;;;;3.90;2.40;;;20.50;60.80;;;;;;4962359;28;20040;-67
2023/06/09 02:46:59;;;;;;;3.42;2.22;;;20.40;60.90;;;;;;4980907;28;20035;-68
2023/06/09 02:49:25;;;;;;;5.30;2.35;;;20.40;60.90;;;;;;4969256;28;20027;-67
2023/06/09 02:51:51;;;;;;;6.43;2.60;;;20.40;61.00;;;;;;4966453;28;20574;-68
2023/06/09 02:54:16;;;;;;;4.60;2.45;;;20.30;61.00;;;;;;4978237;28;20085;-68
2023/06/09 02:56:42;;;;;;;4.90;2.50;;;20.30;61.20;;;;;;4929862;28;20046;-67
2023/06/09 02:59:09;;;;;;;5.05;2.50;;;20.20;61.20;;;;;;4979558;28;20037;-67
2023/06/09 03:01:36;;;;;;;4.63;2.33;;;20.20;61.30;;;;;;4974800;28;20034;-67
2023/06/09 03:04:05;;;;;;;4.03;2.40;;;20.20;61.30;;;;;;4980523;28;20026;-68
2023/06/09 03:06:36;;;;;;;6.07;2.50;;;20.10;61.80;;;;;;4948574;28;20029;-67
2023/06/09 03:09:03;;;;;;;4.40;2.50;;;20.10;61.70;;;;;;4979731;28;20421;-68
2023/06/09 03:11:29;;;;;;;4.78;2.50;;;20.00;61.70;;;;;;4944151;28;20058;-67
2023/06/09 03:13:55;;;;;;;4.47;2.30;;;20.00;61.80;;;;;;4955994;28;20065;-68
2023/06/09 03:16:21;;;;;;;4.30;2.40;;;19.90;61.80;;;;;;4978014;28;20112;-67
2023/06/09 03:18:47;;;;;;;4.50;2.50;;;19.90;62.00;;;;;;4976473;28;20026;-68
2023/06/09 03:21:13;;;;;;;4.72;2.50;;;19.80;62.10;;;;;;4966987;28;20076;-68
2023/06/09 03:23:40;;;;;;;4.80;2.50;;;19.80;62.10;;;;;;4966821;28;20260;-68
2023/06/09 03:26:07;;;;;;;3.73;2.50;;;19.80;62.20;;;;;;4973266;28;20426;-68
2023/06/09 03:28:33;;;;;;;4.88;2.60;;;19.70;62.30;;;;;;4927930;28;20208;-67
2023/06/09 03:30:58;;;;;;;5.15;2.33;;;19.70;62.40;;;;;;4977679;28;20261;-68
2023/06/09 03:33:25;;;;;;;4.63;2.30;;;19.70;62.40;;;;;;4981544;28;20022;-67
2023/06/09 03:35:51;;;;;;;4.30;2.35;;;19.60;62.40;;;;;;4948432;28;20026;-67
2023/06/09 03:38:17;;;;;;;5.15;2.50;;;19.60;62.50;;;;;;4978360;28;20050;-68
2023/06/09 03:40:43;;;;;;;3.80;2.40;;;19.60;62.60;;;;;;4957678;28;20117;-68
2023/06/09 03:43:11;;;;;;;4.95;2.60;;;19.50;62.60;;;;;;4952646;28;20029;-68
2023/06/09 03:45:37;;;;;;;5.50;2.60;;;19.50;62.70;;;;;;4956326;28;20068;-67
2023/06/09 03:48:05;;;;;;;4.55;2.50;;;19.50;62.80;;;;;;4981397;28;20378;-68
2023/06/09 03:50:31;;;;;;;4.18;2.53;;;19.40;62.80;;;;;;4971926;28;21010;-67
2023/06/09 03:52:56;;;;;;;4.20;2.35;;;19.40;62.90;;;;;;4964313;28;20070;-68
2023/06/09 03:55:24;;;;;;;3.93;2.57;;;19.40;63.00;;;;;;4966233;28;20402;-67
2023/06/09 03:57:50;;;;;;;3.88;2.50;;;19.40;63.10;;;;;;4947870;28;20137;-68
2023/06/09 04:00:17;;;;;;;4.65;2.85;;;19.30;63.10;;;;;;4955578;28;20038;-68
2023/06/09 04:02:43;;;;;;;3.90;2.72;;;19.30;63.20;;;;;;4972757;28;20330;-68
2023/06/09 04:05:09;;;;;;;5.13;2.67;;;19.30;63.30;;;;;;4970792;28;20560;-68
2023/06/09 04:07:35;;;;;;;4.75;2.70;;;19.30;63.40;;;;;;4959121;28;20038;-67
2023/06/09 04:10:02;;;;;;;4.93;2.70;;;19.20;63.40;;;;;;4970616;28;20035;-68
2023/06/09 04:12:28;;;;;;;4.00;2.80;;;19.20;63.60;;;;;;4964136;28;20477;-67
2023/06/09 04:14:55;;;;;;;5.67;2.53;;;19.20;63.60;;;;;;4949801;28;20253;-68
2023/06/09 04:17:22;;;;;;;4.90;2.70;;;19.20;63.60;;;;;;4955354;28;20035;-68
2023/06/09 04:19:48;;;;;;;5.82;2.95;;;19.20;63.70;;;;;;4980060;28;20015;-68
2023/06/09 04:22:14;;;;;;;5.75;2.55;;;19.10;63.80;;;;;;4968839;28;20048;-68
2023/06/09 04:24:40;;;;;;;6.20;2.70;;;19.10;64.00;;;;;;4979244;28;20120;-67
2023/06/09 04:27:07;;;;;;;6.13;3.00;;;19.20;64.00;;;;;;4946786;28;20586;-68
2023/06/09 04:29:33;;;;;;;4.60;2.50;;;19.10;64.10;;;;;;4950784;28;20489;-67
2023/06/09 04:31:59;;;;;;;5.18;2.88;;;19.10;64.20;;;;;;4948843;28;20023;-68
2023/06/09 04:34:37;;;;;;;5.10;2.50;;;19.10;64.30;;;;;;4973816;28;20030;-67
2023/06/09 04:37:04;;;;;;;4.60;2.63;;;19.10;64.60;;;;;;4964484;28;20109;-68
2023/06/09 04:39:30;;;;;;;5.13;2.55;;;19.20;64.40;;;;;;4963342;28;20049;-67
2023/06/09 04:41:56;;;;;;;4.47;2.47;;;19.20;64.40;;;;;;4964672;28;20027;-68
2023/06/09 04:44:22;;;;;;;5.25;2.40;;;19.20;64.40;;;;;;4971217;28;20098;-67
2023/06/09 04:46:49;;;;;;;5.70;2.63;;;19.20;65.40;;;;;;4939928;28;20089;-68
2023/06/09 04:49:15;;;;;;;4.97;2.58;;;19.20;64.40;;;;;;4971787;28;20386;-68
2023/06/09 04:51:47;;;;;;;5.27;2.60;;;19.30;64.50;;;;;;4960211;28;20236;-68
2023/06/09 04:54:16;;;;;;;5.72;2.80;;;19.30;65.00;;;;;;4967447;28;20033;-67
2023/06/09 04:56:43;;;;;;;5.72;2.80;;;19.30;65.00;;;;;;4967082;28;21604;-68
2023/06/09 04:59:12;;;;;;;5.15;2.70;;;19.30;64.70;;;;;;4979596;28;20240;-67
2023/06/09 05:01:44;;;;;;;5.13;2.88;;;19.40;65.00;;;;;;4931575;28;20491;-68
2023/06/09 05:04:10;;;;;;;4.50;2.73;;;19.40;64.60;;;;;;4955722;28;20659;-68
2023/06/09 05:06:36;;;;;;;4.85;2.67;;;19.50;64.70;;;;;;4965337;28;20026;-68
2023/06/09 05:09:04;;;;;;;4.63;2.65;;;19.50;64.70;;;;;;4954988;28;20042;-67
2023/06/09 05:11:30;;;;;;;6.03;3.10;;;19.50;64.90;;;;;;4981309;28;20022;-68
2023/06/09 05:13:55;;;;;;;4.17;2.77;;;19.50;65.50;;;;;;4977082;28;20184;-67
2023/06/09 05:16:25;;;;;;;5.45;2.88;;;19.60;64.90;;;;;;4945414;28;20702;-68
2023/06/09 05:18:51;;;;;;;4.57;2.93;;;19.60;64.90;;;;;;4960895;28;20057;-67
2023/06/09 05:21:17;;;;;;;5.47;3.00;;;19.60;65.00;;;;;;4958737;28;20532;-67
2023/06/09 05:23:43;;;;;;;6.32;2.92;;;19.70;65.50;;;;;;4965467;28;20031;-68
2023/06/09 05:26:09;;;;;;;5.07;3.23;;;19.70;65.20;;;;;;4960542;28;20038;-67
2023/06/09 05:28:34;;;;;;;5.10;3.00;;;19.80;65.00;;;;;;4964463;28;20097;-68
2023/06/09 05:31:01;;;;;;;5.80;3.00;;;19.80;65.20;;;;;;4940552;28;20771;-67
2023/06/09 05:33:27;;;;;;;5.05;3.00;;;19.80;65.20;;;;;;4936755;28;20089;-68
2023/06/09 05:35:53;;;;;;;5.22;3.10;;;19.80;65.20;;;;;;4967992;28;20437;-67
2023/06/09 05:38:19;;;;;;;5.07;3.10;;;19.90;65.30;;;;;;4947622;28;20227;-67
2023/06/09 05:40:45;;;;;;;5.80;3.17;;;19.90;65.40;;;;;;4960735;28;20133;-68
2023/06/09 05:43:11;;;;;;;5.00;3.53;;;20.00;65.40;;;;;;4973333;28;20432;-68
2023/06/09 05:45:37;;;;;;;4.40;3.13;;;20.00;65.50;;;;;;4976009;28;20030;-68
2023/06/09 05:48:03;;;;;;;5.90;3.40;;;20.10;65.60;;;;;;4946850;28;20034;-67
2023/06/09 05:50:29;;;;;;;6.15;3.50;;;20.10;65.80;;;;;;4956779;28;20029;-67
2023/06/09 05:52:55;;;;;;;4.87;3.40;;;20.20;65.80;;;;;;4933790;28;20105;-67
2023/06/09 05:55:21;;;;;;;5.70;3.30;;;20.20;65.90;;;;;;4963949;28;20216;-68
2023/06/09 05:57:48;;;;;;;5.50;3.77;;;20.30;65.90;;;;;;4974710;28;20550;-68
2023/06/09 06:00:15;;;;;;;5.50;3.60;;;20.30;66.00;;;;;;4975215;28;20023;-67
2023/06/09 06:02:42;;;;;;;5.38;3.45;;;20.40;66.00;;;;;;4951561;28;20083;-68
2023/06/09 06:05:08;;;;;;;5.53;3.75;;;20.50;66.00;;;;;;4956969;28;20251;-68
2023/06/09 06:07:36;;;;;;;7.38;3.75;;;20.50;66.10;;;;;;4960057;28;20022;-68
2023/06/09 06:10:06;;;;;;;4.57;3.43;;;20.60;66.20;;;;;;4961766;28;20069;-67
2023/06/09 06:12:35;;;;;;;6.13;3.85;;;20.70;66.50;;;;;;4962959;28;20710;-68
2023/06/09 06:15:00;;;;;;;6.18;3.90;;;20.70;66.50;;;;;;4975201;28;20046;-67
2023/06/09 06:17:26;;;;;;;5.30;3.50;;;20.80;66.30;;;;;;4942192;28;20100;-68
2023/06/09 06:19:52;;;;;;;7.67;3.90;;;20.90;66.30;;;;;;4963260;28;20755;-68
2023/06/09 06:22:17;;;;;;;6.53;4.13;;;21.00;66.10;;;;;;4948596;28;20041;-68
2023/06/09 06:24:43;;;;;;;5.40;3.87;;;21.10;66.00;;;;;;4958196;28;20057;-68
2023/06/09 06:27:11;;;;;;;5.57;3.92;;;21.20;66.10;;;;;;4962440;28;20376;-68
2023/06/09 06:29:38;;;;;;;5.67;4.10;;;21.20;66.00;;;;;;4946319;28;20125;-68
2023/06/09 06:32:05;;;;;;;5.88;4.07;;;21.30;66.20;;;;;;4943032;28;20406;-67
2023/06/09 06:34:31;;;;;;;5.50;3.97;;;21.30;66.20;;;;;;4964642;28;20042;-68
2023/06/09 06:36:57;;;;;;;6.13;4.10;;;21.50;66.30;;;;;;4952637;28;20401;-67
2023/06/09 06:39:23;;;;;;;5.87;3.90;;;21.50;66.30;;;;;;4950125;28;20134;-68
2023/06/09 06:41:49;;;;;;;5.18;3.90;;;21.60;66.30;;;;;;4946177;28;20429;-67
2023/06/09 06:44:15;;;;;;;5.07;3.97;;;21.70;66.40;;;;;;4960960;28;20042;-68
2023/06/09 06:46:41;;;;;;;5.93;4.00;;;21.80;66.30;;;;;;4963514;28;20019;-67
2023/06/09 06:49:06;;;;;;;6.07;4.13;;;21.80;66.20;;;;;;4943385;28;20239;-68
2023/06/09 06:51:32;;;;;;;5.80;4.33;;;21.90;66.20;;;;;;4961787;28;20041;-68
2023/06/09 06:53:58;;;;;;;6.57;4.38;;;22.00;66.20;;;;;;4965131;28;20088;-68
2023/06/09 06:56:25;;;;;;;6.10;4.57;;;22.10;66.20;;;;;;4943408;28;20037;-68
2023/06/09 06:58:52;;;;;;;6.70;3.78;;;22.10;66.20;;;;;;4960303;28;20026;-67
2023/06/09 07:01:21;;;;;;;5.47;4.13;;;22.20;66.40;;;;;;4970887;28;20026;-68
2023/06/09 07:03:49;;;;;;;6.43;4.00;;;22.30;66.20;;;;;;4946983;28;20056;-67
2023/06/09 07:06:16;;;;;;;6.57;4.20;;;22.40;66.30;;;;;;4972386;28;20045;-67
2023/06/09 07:08:42;;;;;;;6.90;4.43;;;22.50;66.30;;;;;;4954643;28;20030;-68
2023/06/09 07:11:08;;;;;;;5.82;3.95;;;22.50;66.20;;;;;;4946840;28;20870;-67
2023/06/09 07:13:34;;;;;;;6.70;4.22;;;22.70;66.10;;;;;;4963325;28;20220;-67
2023/06/09 07:16:00;;;;;;;5.40;4.15;;;22.80;66.10;;;;;;4971490;28;20045;-67
2023/06/09 07:18:26;;;;;;;6.77;4.07;;;22.80;66.00;;;;;;4972161;28;20799;-68
2023/06/09 07:20:52;;;;;;;5.97;4.40;;;22.90;65.90;;;;;;4950137;28;20031;-67
2023/06/09 07:23:18;;;;;;;6.25;4.38;;;23.10;65.90;;;;;;4952704;28;20478;-67
2023/06/09 07:25:44;;;;;;;5.60;4.25;;;23.10;66.00;;;;;;4951746;28;20680;-68
2023/06/09 07:28:10;;;;;;;5.70;4.30;;;23.20;66.00;;;;;;4968911;28;20077;-67
2023/06/09 07:30:35;;;;;;;7.25;4.32;;;23.30;65.80;;;;;;4964649;28;20121;-67
2023/06/09 07:33:01;;;;;;;5.43;4.07;;;23.40;65.70;;;;;;4981951;28;20049;-67
2023/06/09 07:35:28;;;;;;;5.40;4.13;;;23.50;65.80;;;;;;4939539;28;20151;-68
2023/06/09 07:37:54;;;;;;;5.33;3.93;;;23.60;65.70;;;;;;4957960;28;20038;-68
2023/06/09 07:40:20;;;;;;;5.63;3.70;;;23.60;65.60;;;;;;4979672;28;20034;-68
2023/06/09 07:42:45;;;;;;;6.95;4.28;;;23.70;65.50;;;;;;4960569;28;20038;-68
2023/06/09 07:45:14;;;;;;;6.17;3.70;;;23.90;65.50;;;;;;4962995;28;20436;-68
2023/06/09 07:47:40;;;;;;;8.15;4.20;;;24.00;65.60;;;;;;4973964;28;20038;-68
2023/06/09 07:50:06;;;;;;;5.00;3.88;;;24.10;65.40;;;;;;4949675;28;20049;-67
2023/06/09 07:52:33;;;;;;;4.97;3.80;;;24.20;65.30;;;;;;4952235;28;20320;-67
2023/06/09 07:54:59;;;;;;;4.72;3.75;;;24.40;65.10;;;;;;4978340;28;20414;-68
2023/06/09 07:57:24;;;;;;;5.40;4.07;;;24.50;65.40;;;;;;4958822;28;20078;-68
2023/06/09 07:59:50;;;;;;;4.50;3.83;;;24.60;65.70;;;;;;4960379;28;20102;-67
2023/06/09 08:02:16;;;;;;;5.38;3.70;;;24.80;67.00;;;;;;4974851;28;20057;-68
2023/06/09 08:04:42;;;;;;;6.35;3.70;;;25.10;66.90;;;;;;4974688;28;20294;-68
2023/06/09 08:07:08;;;;;;;4.40;3.67;;;25.40;67.20;;;;;;4945875;28;20034;-67
2023/06/09 08:09:34;;;;;;;4.30;3.38;;;25.80;67.10;;;;;;4954728;28;20022;-68
2023/06/09 08:12:00;;;;;;;5.15;3.80;;;26.20;66.90;;;;;;4978675;28;20034;-67
2023/06/09 08:14:25;;;;;;;4.97;3.87;;;26.60;67.00;;;;;;4945203;28;20038;-68
2023/06/09 08:16:52;;;;;;;4.60;3.72;;;27.00;67.10;;;;;;4978021;28;20046;-68
2023/06/09 08:19:18;;;;;;;4.63;3.83;;;27.50;67.20;;;;;;4975800;28;20069;-68
2023/06/09 08:21:44;;;;;;;3.80;3.40;;;27.90;67.10;;;;;;4951062;28;20626;-68
2023/06/09 08:24:10;;;;;;;4.40;3.65;;;28.40;66.80;;;;;;4963304;28;20121;-68
2023/06/09 08:26:36;;;;;;;5.15;3.80;;;28.90;65.90;;;;;;4960195;28;20266;-68
2023/06/09 08:29:06;;;;;;;4.50;3.30;;;29.30;64.90;;;;;;4949596;28;20565;-68
2023/06/09 08:31:33;;;;;;;4.68;3.30;;;29.80;63.40;;;;;;4978791;28;20292;-68
2023/06/09 08:33:59;;;;;;;3.85;3.40;;;30.20;63.70;;;;;;4982402;28;20105;-68
2023/06/09 08:36:25;;;;;;;4.50;3.45;;;30.60;63.20;;;;;;4953143;28;20114;-68
2023/06/09 08:38:51;;;;;;;4.10;3.70;;;31.00;61.90;;;;;;4956603;28;20056;-68
2023/06/09 08:41:19;;;;;;;5.20;3.35;;;31.40;61.00;;;;;;4981459;28;20117;-68
2023/06/09 08:43:46;;;;;;;3.72;3.15;;;31.70;60.30;;;;;;4959704;28;20042;-68
2023/06/09 08:46:12;;;;;;;3.77;3.40;;;32.10;59.80;;;;;;4962964;28;20118;-68
2023/06/09 08:48:41;;;;;;;3.70;3.17;;;32.40;58.90;;;;;;4977234;28;20362;-68
2023/06/09 08:51:08;;;;;;;3.85;3.40;;;32.70;58.00;;;;;;4980727;28;20026;-68
2023/06/09 08:53:34;;;;;;;3.80;3.47;;;33.10;57.20;;;;;;4941487;28;20218;-69
2023/06/09 08:56:01;;;;;;;4.00;3.20;;;33.30;56.70;;;;;;4963909;28;20053;-68
2023/06/09 08:58:27;;;;;;;3.60;3.30;;;33.60;56.30;;;;;;4959287;28;20038;-68
2023/06/09 09:00:53;;;;;;;3.67;3.30;;;33.80;55.80;;;;;;4951130;28;20029;-69
2023/06/09 09:03:20;;;;;;;3.97;3.58;;;34.10;55.40;;;;;;4978070;28;20033;-69
2023/06/09 09:05:46;;;;;;;3.47;3.17;;;34.30;54.70;;;;;;4977483;28;20207;-69
2023/06/09 09:08:15;;;;;;;3.50;3.20;;;34.50;53.80;;;;;;4952744;28;20034;-69
2023/06/09 09:10:42;;;;;;;3.95;3.40;;;34.80;52.40;;;;;;4960161;28;20601;-68
2023/06/09 09:13:09;;;;;;;3.90;3.60;;;35.00;52.80;;;;;;4983875;28;20029;-69
2023/06/09 09:15:37;;;;;;;4.65;3.63;;;35.20;51.90;;;;;;4949199;28;20054;-69
2023/06/09 09:18:06;;;;;;;3.80;3.50;;;35.40;51.40;;;;;;4970757;28;20485;-69
2023/06/09 09:20:33;;;;;;;4.20;3.80;;;35.60;50.40;;;;;;4976063;28;20670;-69
2023/06/09 09:22:59;;;;;;;3.60;3.30;;;35.80;50.00;;;;;;4958886;28;20078;-69
2023/06/09 09:25:27;;;;;;;3.85;3.45;;;35.90;50.00;;;;;;4963215;28;20062;-69
2023/06/09 09:28:01;;;;;;;3.75;3.45;;;36.00;49.00;;;;;;4961297;28;20073;-69
2023/06/09 09:30:47;;;;;;;3.40;3.10;;;36.20;47.10;;;;;;4956183;28;20049;-69
2023/06/09 09:33:26;;;;;;;3.70;3.40;;;36.30;47.00;;;;;;4955168;28;20029;-69
2023/06/09 09:35:57;;;;;;;3.17;2.88;;;36.50;46.20;;;;;;4975531;28;20069;-69
2023/06/09 09:38:27;;;;;;;3.72;3.40;;;36.60;46.20;;;;;;4955474;28;20469;-69
2023/06/09 09:40:55;;;;;;;4.07;3.75;;;36.80;46.50;;;;;;4981718;28;20042;-69
2023/06/09 09:43:24;;;;;;;4.13;3.50;;;36.90;46.40;;;;;;4947594;28;20652;-69
2023/06/09 09:45:52;;;;;;;3.90;3.55;;;37.00;46.00;;;;;;4961524;28;20034;-68
2023/06/09 09:48:20;;;;;;;3.03;2.72;;;37.20;45.90;;;;;;4973325;28;20581;-69
2023/06/09 09:50:47;;;;;;;4.22;3.05;;;37.30;45.60;;;;;;4979299;28;20492;-69
2023/06/09 09:53:14;;;;;;;3.60;3.30;;;37.50;44.40;;;;;;4970342;28;20018;-69
2023/06/09 09:55:45;;;;;;;3.30;3.00;;;37.60;43.80;;;;;;4958115;28;20027;-69
2023/06/09 09:58:12;;;;;;;3.60;3.30;;;37.70;43.10;;;;;;4950930;28;20038;-69
2023/06/09 10:00:41;;;;;;;4.13;3.10;;;37.80;43.60;;;;;;4941451;28;20689;-69
2023/06/09 10:03:15;;;;;;;4.30;3.50;;;37.90;42.60;;;;;;4978114;28;20414;-69
2023/06/09 10:05:46;;;;;;;4.13;3.25;;;38.00;41.70;;;;;;4958656;28;20035;-69
2023/06/09 10:08:16;;;;;;;3.97;3.50;;;38.10;41.80;;;;;;4969691;28;20121;-69
2023/06/09 10:10:42;;;;;;;3.33;3.03;;;38.20;42.00;;;;;;4955497;28;20035;-69
2023/06/09 10:13:08;;;;;;;3.45;3.15;;;38.30;42.00;;;;;;4971205;28;20501;-69
2023/06/09 10:15:34;;;;;;;3.33;3.03;;;38.40;41.40;;;;;;4935677;28;20974;-69
2023/06/09 10:18:01;;;;;;;3.77;2.93;;;38.60;41.20;;;;;;4976771;28;20092;-69
2023/06/09 10:20:28;;;;;;;3.10;2.90;;;38.70;40.90;;;;;;4968322;28;20022;-69
2023/06/09 10:22:54;;;;;;;3.85;3.55;;;38.80;40.60;;;;;;4986525;28;20030;-69
2023/06/09 10:25:23;;;;;;;3.70;3.40;;;38.80;40.10;;;;;;4948079;28;20026;-69
2023/06/09 10:27:50;;;;;;;4.18;3.60;;;38.90;39.20;;;;;;4967911;28;20038;-69
2023/06/09 10:30:17;;;;;;;3.60;3.00;;;38.90;38.50;;;;;;4942562;28;20719;-69
2023/06/09 10:32:48;;;;;;;4.05;3.75;;;38.90;38.90;;;;;;4966458;28;20035;-69
2023/06/09 10:35:17;;;;;;;3.50;3.20;;;38.90;38.20;;;;;;4967001;28;20967;-69
2023/06/09 10:37:45;;;;;;;3.50;3.20;;;38.90;38.10;;;;;;4964505;28;20581;-69
2023/06/09 10:40:34;;;;;;;4.03;3.50;;;38.90;38.10;;;;;;4949627;28;20023;-69
2023/06/09 10:43:11;;;;;;;3.60;3.30;;;38.90;37.40;;;;;;4964422;28;20527;-69
2023/06/09 10:45:51;;;;;;;3.85;3.50;;;38.90;37.30;;;;;;4945588;28;22040;-69
2023/06/09 10:48:43;;;;;;;3.60;3.30;;;38.90;36.90;;;;;;4957534;28;20236;-69
2023/06/09 10:51:26;;;;;;;3.67;3.38;;;38.90;37.00;;;;;;4966745;28;20092;-69
2023/06/09 10:54:07;;;;;;;4.45;3.83;;;39.00;36.30;;;;;;4974656;28;20057;-69
2023/06/09 10:56:35;;;;;;;3.70;3.40;;;39.10;36.50;;;;;;4934754;28;20034;-69
2023/06/09 10:59:01;;;;;;;3.40;3.10;;;39.30;37.00;;;;;;4959212;28;20113;-70
2023/06/09 11:01:26;;;;;;;3.97;3.60;;;39.40;37.30;;;;;;4942245;28;20030;-69
2023/06/09 11:03:52;;;;;;;3.37;3.07;;;39.50;37.10;;;;;;4966924;28;20033;-69
2023/06/09 11:06:18;;;;;;;4.13;3.72;;;39.50;36.60;;;;;;4965896;28;20060;-69
2023/06/09 11:09:09;;;;;;;3.80;3.50;;;39.70;36.30;;;;;;4974127;28;20026;-69
2023/06/09 11:11:49;;;;;;;3.67;3.38;;;39.80;35.50;;;;;;4924214;28;20130;-69
2023/06/09 11:14:46;;;;;;;3.42;3.13;;;39.90;35.60;;;;;;4954230;28;20034;-69
2023/06/09 11:17:25;;;;;;;3.90;3.60;;;40.00;35.10;;;;;;4942350;28;20733;-69
2023/06/09 11:20:15;;;;;;;3.90;3.58;;;40.20;34.70;;;;;;4955987;28;20117;-69
2023/06/09 11:22:41;;;;;;;3.80;3.50;;;40.30;34.70;;;;;;4980649;28;20041;-69
2023/06/09 11:25:27;;;;;;;3.88;3.47;;;40.30;34.40;;;;;;4976933;28;20082;-69
2023/06/09 11:27:56;;;;;;;3.40;3.10;;;40.30;33.70;;;;;;4934342;28;20038;-69
2023/06/09 11:30:27;;;;;;;4.50;4.10;;;40.30;33.80;;;;;;4974784;28;20133;-69
2023/06/09 11:33:01;;;;;;;4.05;3.72;;;40.20;33.00;;;;;;4950788;28;20035;-69
2023/06/09 11:35:29;;;;;;;3.38;3.08;;;40.20;32.90;;;;;;4962311;28;20031;-69
2023/06/09 11:38:00;;;;;;;4.18;3.88;;;40.20;33.30;;;;;;4964777;28;20128;-69
2023/06/09 11:40:28;;;;;;;3.75;3.45;;;40.20;32.30;;;;;;4957972;28;20034;-69
2023/06/09 11:42:58;;;;;;;4.87;3.77;;;40.30;32.90;;;;;;4945819;28;20027;-69
2023/06/09 11:45:24;;;;;;;4.50;4.10;;;40.30;32.50;;;;;;4975217;28;20065;-69
2023/06/09 11:47:56;;;;;;;3.83;3.53;;;40.30;32.20;;;;;;4961311;28;20406;-69
2023/06/09 11:50:46;;;;;;;3.65;3.35;;;40.30;32.70;;;;;;4936472;28;20237;-69
2023/06/09 11:53:16;;;;;;;3.63;3.33;;;40.30;32.80;;;;;;4956366;28;20133;-69
2023/06/09 11:55:43;;;;;;;3.90;3.60;;;40.30;32.80;;;;;;4947461;28;20034;-69
2023/06/09 11:58:10;;;;;;;3.42;3.13;;;40.40;32.50;;;;;;4948738;28;20031;-69
2023/06/09 12:00:41;;;;;;;3.95;3.60;;;40.40;32.70;;;;;;4976487;28;20341;-69
2023/06/09 12:03:09;;;;;;;3.80;3.50;;;40.60;31.50;;;;;;4959389;28;20460;-69
2023/06/09 12:05:35;;;;;;;4.07;3.67;;;40.60;32.40;;;;;;4943517;28;20729;-69
2023/06/09 12:08:01;;;;;;;3.87;3.50;;;40.70;32.10;;;;;;4972080;28;20617;-69
2023/06/09 12:10:28;;;;;;;3.40;3.10;;;40.80;32.20;;;;;;4979310;28;20088;-69
2023/06/09 12:12:55;;;;;;;4.20;3.80;;;40.80;31.70;;;;;;4949693;28;21094;-69
2023/06/09 12:15:23;;;;;;;3.72;3.42;;;40.80;31.80;;;;;;4979303;28;20030;-69
2023/06/09 12:17:51;;;;;;;3.25;2.95;;;40.90;31.50;;;;;;4965852;28;20038;-69
2023/06/09 12:20:26;;;;;;;3.80;3.13;;;41.00;31.10;;;;;;4958390;28;20177;-69
2023/06/09 12:22:53;;;;;;;3.90;3.60;;;41.10;30.40;;;;;;4971308;28;20719;-69
2023/06/09 12:25:25;;;;;;;4.20;3.70;;;41.10;30.80;;;;;;4980188;28;20081;-69
2023/06/09 12:27:52;;;;;;;3.30;3.00;;;41.20;31.20;;;;;;4978051;28;20034;-69
2023/06/09 12:30:37;;;;;;;3.67;3.38;;;41.10;30.90;;;;;;4957408;28;20089;-69
2023/06/09 12:33:11;;;;;;;3.57;3.27;;;41.20;30.00;;;;;;4965906;28;20100;-69
2023/06/09 12:35:47;;;;;;;3.90;3.60;;;41.30;30.60;;;;;;4952856;28;20088;-68
2023/06/09 12:38:21;;;;;;;3.75;3.45;;;41.40;30.30;;;;;;4975901;28;20030;-69
2023/06/09 12:40:54;;;;;;;4.05;3.75;;;41.40;30.40;;;;;;4981020;28;20034;-69
2023/06/09 12:43:21;;;;;;;4.07;3.78;;;41.40;30.10;;;;;;4980807;28;20030;-69
2023/06/09 12:45:48;;;;;;;3.60;2.90;;;41.40;30.00;;;;;;4951098;28;20058;-69
2023/06/09 12:48:15;;;;;;;4.15;3.75;;;41.50;30.30;;;;;;4967855;28;20034;-69
2023/06/09 12:50:42;;;;;;;3.53;3.15;;;41.50;30.00;;;;;;4972552;28;20225;-69
2023/06/09 12:53:09;;;;;;;4.00;3.38;;;41.50;30.00;;;;;;4955314;28;20458;-69